sensor_id;sensor_type;location;lat;lon;timestamp;P1;durP1;ratioP1;P2;durP2;ratioP2
13319;SDS011;59599;47.608;12.190;2022-08-19T04:00:54;7.25;;;5.20;;
13319;SDS011;59599;47.608;12.190;2022-08-19T04:03:23;5.65;;;4.68;;
13319;SDS011;59599;47.608;12.190;2022-08-19T04:05:50;8.95;;;4.60;;
13319;SDS011;59599;47.608;12.190;2022-08-19T04:08:16;7.78;;;5.10;;
13319;SDS011;59599;47.608;12.190;2022-08-19T04:10:45;5.32;;;4.80;;
13319;SDS011;59599;47.608;12.190;2022-08-19T04:13:15;6.22;;;5.13;;
13319;SDS011;59599;47.608;12.190;2022-08-19T04:15:42;8.25;;;5.22;;
13319;SDS011;59599;47.608;12.190;2022-08-19T04:18:09;5.57;;;5.00;;
13319;SDS011;59599;47.608;12.190;2022-08-19T04:20:45;6.30;;;4.90;;
13319;SDS011;59599;47.608;12.190;2022-08-19T04:23:12;6.93;;;4.70;;
13319;SDS011;59599;47.608;12.190;2022-08-19T04:25:40;8.50;;;5.15;;
13319;SDS011;59599;47.608;12.190;2022-08-19T04:28:07;8.95;;;5.05;;
13319;SDS011;59599;47.608;12.190;2022-08-19T04:30:44;8.25;;;5.20;;
13319;SDS011;59599;47.608;12.190;2022-08-19T04:33:13;7.00;;;5.70;;
13319;SDS011;59599;47.608;12.190;2022-08-19T04:35:41;12.00;;;5.53;;
13319;SDS011;59599;47.608;12.190;2022-08-19T04:38:08;6.80;;;5.25;;
13319;SDS011;59599;47.608;12.190;2022-08-19T04:40:39;7.72;;;5.03;;
13319;SDS011;59599;47.608;12.190;2022-08-19T04:43:24;5.25;;;4.75;;
13319;SDS011;59599;47.608;12.190;2022-08-19T04:45:50;7.55;;;5.30;;
13319;SDS011;59599;47.608;12.190;2022-08-19T04:48:16;6.82;;;5.07;;
13319;SDS011;59599;47.608;12.190;2022-08-19T04:50:44;7.85;;;5.25;;
13319;SDS011;59599;47.608;12.190;2022-08-19T04:53:10;10.70;;;5.10;;
13319;SDS011;59599;47.608;12.190;2022-08-19T04:55:40;8.02;;;5.40;;
13319;SDS011;59599;47.608;12.190;2022-08-19T04:58:06;5.88;;;5.05;;
13319;SDS011;59599;47.608;12.190;2022-08-19T05:00:32;10.38;;;6.10;;
13319;SDS011;59599;47.608;12.190;2022-08-19T05:02:58;8.05;;;5.35;;
13319;SDS011;59599;47.608;12.190;2022-08-19T05:05:24;9.52;;;6.15;;
13319;SDS011;59599;47.608;12.190;2022-08-19T05:07:50;8.55;;;5.40;;
13319;SDS011;59599;47.608;12.190;2022-08-19T05:10:15;8.85;;;5.68;;
13319;SDS011;59599;47.608;12.190;2022-08-19T05:12:41;6.20;;;4.70;;
13319;SDS011;59599;47.608;12.190;2022-08-19T05:15:08;7.03;;;5.32;;
13319;SDS011;59599;47.608;12.190;2022-08-19T05:17:34;6.03;;;5.43;;
13319;SDS011;59599;47.608;12.190;2022-08-19T05:20:00;10.73;;;5.70;;
13319;SDS011;59599;47.608;12.190;2022-08-19T05:22:45;8.35;;;5.20;;
13319;SDS011;59599;47.608;12.190;2022-08-19T05:25:13;8.32;;;5.32;;
13319;SDS011;59599;47.608;12.190;2022-08-19T05:27:43;7.85;;;5.50;;
13319;SDS011;59599;47.608;12.190;2022-08-19T05:30:10;7.68;;;5.03;;
13319;SDS011;59599;47.608;12.190;2022-08-19T05:32:36;6.53;;;5.63;;
13319;SDS011;59599;47.608;12.190;2022-08-19T05:35:03;7.00;;;5.53;;
13319;SDS011;59599;47.608;12.190;2022-08-19T05:37:29;6.80;;;5.40;;
13319;SDS011;59599;47.608;12.190;2022-08-19T05:39:55;9.82;;;5.80;;
13319;SDS011;59599;47.608;12.190;2022-08-19T05:42:21;8.98;;;5.15;;
13319;SDS011;59599;47.608;12.190;2022-08-19T05:44:47;8.02;;;5.32;;
13319;SDS011;59599;47.608;12.190;2022-08-19T05:47:14;6.72;;;5.15;;
13319;SDS011;59599;47.608;12.190;2022-08-19T05:49:40;8.75;;;5.30;;
13319;SDS011;59599;47.608;12.190;2022-08-19T05:52:07;6.03;;;4.63;;
13319;SDS011;59599;47.608;12.190;2022-08-19T05:54:37;10.00;;;5.72;;
13319;SDS011;59599;47.608;12.190;2022-08-19T05:57:06;6.57;;;5.07;;
13319;SDS011;59599;47.608;12.190;2022-08-19T05:59:33;6.78;;;5.30;;
13319;SDS011;59599;47.608;12.190;2022-08-19T06:02:00;7.65;;;5.13;;
13319;SDS011;59599;47.608;12.190;2022-08-19T06:04:26;7.78;;;5.43;;
13319;SDS011;59599;47.608;12.190;2022-08-19T06:06:52;7.32;;;5.82;;
13319;SDS011;59599;47.608;12.190;2022-08-19T06:09:19;7.20;;;5.80;;
13319;SDS011;59599;47.608;12.190;2022-08-19T06:11:51;7.38;;;6.18;;
13319;SDS011;59599;47.608;12.190;2022-08-19T06:14:23;8.70;;;6.60;;
13319;SDS011;59599;47.608;12.190;2022-08-19T06:16:50;14.82;;;7.78;;
13319;SDS011;59599;47.608;12.190;2022-08-19T06:19:19;10.65;;;7.07;;
13319;SDS011;59599;47.608;12.190;2022-08-19T06:21:47;18.77;;;7.53;;
13319;SDS011;59599;47.608;12.190;2022-08-19T06:24:14;13.98;;;7.00;;
13319;SDS011;59599;47.608;12.190;2022-08-19T06:26:42;14.32;;;8.00;;
13319;SDS011;59599;47.608;12.190;2022-08-19T06:29:10;13.52;;;7.90;;
13319;SDS011;59599;47.608;12.190;2022-08-19T06:31:40;12.65;;;7.38;;
13319;SDS011;59599;47.608;12.190;2022-08-19T06:34:08;11.35;;;7.72;;
13319;SDS011;59599;47.608;12.190;2022-08-19T06:36:35;20.85;;;8.25;;
13319;SDS011;59599;47.608;12.190;2022-08-19T06:39:03;21.13;;;8.35;;
13319;SDS011;59599;47.608;12.190;2022-08-19T06:41:33;24.60;;;8.13;;
13319;SDS011;59599;47.608;12.190;2022-08-19T06:44:01;17.13;;;7.38;;
13319;SDS011;59599;47.608;12.190;2022-08-19T06:46:27;10.95;;;6.93;;
13319;SDS011;59599;47.608;12.190;2022-08-19T06:48:53;8.55;;;6.70;;
13319;SDS011;59599;47.608;12.190;2022-08-19T06:51:19;8.55;;;6.53;;
13319;SDS011;59599;47.608;12.190;2022-08-19T06:53:47;11.68;;;7.10;;
13319;SDS011;59599;47.608;12.190;2022-08-19T06:56:14;6.68;;;6.07;;
13319;SDS011;59599;47.608;12.190;2022-08-19T06:58:42;9.88;;;6.82;;
13319;SDS011;59599;47.608;12.190;2022-08-19T07:01:08;7.10;;;6.40;;
13319;SDS011;59599;47.608;12.190;2022-08-19T07:03:35;6.95;;;5.72;;
13319;SDS011;59599;47.608;12.190;2022-08-19T07:06:05;6.20;;;5.60;;
13319;SDS011;59599;47.608;12.190;2022-08-19T07:08:32;6.60;;;5.18;;
13319;SDS011;59599;47.608;12.190;2022-08-19T07:10:59;11.30;;;5.05;;
13319;SDS011;59599;47.608;12.190;2022-08-19T07:13:25;6.15;;;5.28;;
13319;SDS011;59599;47.608;12.190;2022-08-19T07:15:51;6.43;;;4.68;;
13319;SDS011;59599;47.608;12.190;2022-08-19T07:18:17;4.90;;;4.43;;
13319;SDS011;59599;47.608;12.190;2022-08-19T07:20:45;4.60;;;4.15;;
13319;SDS011;59599;47.608;12.190;2022-08-19T07:23:11;4.25;;;3.85;;
13319;SDS011;59599;47.608;12.190;2022-08-19T07:25:37;3.85;;;3.55;;
13319;SDS011;59599;47.608;12.190;2022-08-19T07:28:03;4.28;;;3.35;;
13319;SDS011;59599;47.608;12.190;2022-08-19T07:30:29;3.60;;;3.30;;
13319;SDS011;59599;47.608;12.190;2022-08-19T07:32:55;3.63;;;3.33;;
13319;SDS011;59599;47.608;12.190;2022-08-19T07:35:21;3.35;;;3.10;;
13319;SDS011;59599;47.608;12.190;2022-08-19T07:37:48;3.13;;;2.90;;
13319;SDS011;59599;47.608;12.190;2022-08-19T07:40:14;2.90;;;2.70;;
13319;SDS011;59599;47.608;12.190;2022-08-19T07:42:40;3.20;;;2.92;;
13319;SDS011;59599;47.608;12.190;2022-08-19T07:45:07;3.05;;;2.75;;
13319;SDS011;59599;47.608;12.190;2022-08-19T07:47:33;5.05;;;3.35;;
13319;SDS011;59599;47.608;12.190;2022-08-19T07:49:59;3.10;;;2.80;;
13319;SDS011;59599;47.608;12.190;2022-08-19T07:52:25;4.45;;;2.53;;
13319;SDS011;59599;47.608;12.190;2022-08-19T07:54:50;2.80;;;2.60;;
13319;SDS011;59599;47.608;12.190;2022-08-19T07:57:17;3.90;;;2.78;;
13319;SDS011;59599;47.608;12.190;2022-08-19T07:59:43;3.03;;;2.72;;
13319;SDS011;59599;47.608;12.190;2022-08-19T08:02:09;3.00;;;2.67;;
13319;SDS011;59599;47.608;12.190;2022-08-19T08:04:35;2.97;;;2.65;;
13319;SDS011;59599;47.608;12.190;2022-08-19T08:07:19;3.03;;;2.80;;
13319;SDS011;59599;47.608;12.190;2022-08-19T08:10:05;4.70;;;3.17;;
13319;SDS011;59599;47.608;12.190;2022-08-19T08:12:36;3.15;;;2.70;;
13319;SDS011;59599;47.608;12.190;2022-08-19T08:15:10;4.20;;;3.00;;
13319;SDS011;59599;47.608;12.190;2022-08-19T08:17:41;5.70;;;2.78;;
13319;SDS011;59599;47.608;12.190;2022-08-19T08:20:08;9.68;;;3.00;;
13319;SDS011;59599;47.608;12.190;2022-08-19T08:22:34;6.47;;;2.67;;
13319;SDS011;59599;47.608;12.190;2022-08-19T08:25:20;5.22;;;3.08;;
13319;SDS011;59599;47.608;12.190;2022-08-19T08:27:47;6.30;;;2.90;;
13319;SDS011;59599;47.608;12.190;2022-08-19T08:30:24;3.25;;;2.97;;
13319;SDS011;59599;47.608;12.190;2022-08-19T08:32:51;4.15;;;2.90;;
13319;SDS011;59599;47.608;12.190;2022-08-19T08:35:18;3.05;;;2.75;;
13319;SDS011;59599;47.608;12.190;2022-08-19T08:37:47;4.00;;;2.80;;
13319;SDS011;59599;47.608;12.190;2022-08-19T08:40:22;3.05;;;2.75;;
13319;SDS011;59599;47.608;12.190;2022-08-19T08:42:54;3.95;;;3.20;;
13319;SDS011;59599;47.608;12.190;2022-08-19T08:45:27;4.68;;;2.95;;
13319;SDS011;59599;47.608;12.190;2022-08-19T08:47:55;3.10;;;2.80;;
13319;SDS011;59599;47.608;12.190;2022-08-19T08:50:29;3.88;;;3.28;;
13319;SDS011;59599;47.608;12.190;2022-08-19T08:53:01;9.05;;;3.10;;
13319;SDS011;59599;47.608;12.190;2022-08-19T08:55:29;7.55;;;3.22;;
13319;SDS011;59599;47.608;12.190;2022-08-19T08:57:59;8.25;;;2.88;;
13319;SDS011;59599;47.608;12.190;2022-08-19T09:00:28;5.18;;;2.80;;
13319;SDS011;59599;47.608;12.190;2022-08-19T09:02:57;3.35;;;3.05;;
13319;SDS011;59599;47.608;12.190;2022-08-19T09:05:30;7.47;;;2.70;;
13319;SDS011;59599;47.608;12.190;2022-08-19T09:08:08;4.45;;;2.30;;
13319;SDS011;59599;47.608;12.190;2022-08-19T09:10:49;3.35;;;1.70;;
13319;SDS011;59599;47.608;12.190;2022-08-19T09:16:11;2.33;;;2.13;;
13319;SDS011;59599;47.608;12.190;2022-08-19T09:18:42;2.58;;;2.38;;
13319;SDS011;59599;47.608;12.190;2022-08-19T09:21:11;2.90;;;2.70;;
13319;SDS011;59599;47.608;12.190;2022-08-19T09:23:38;4.47;;;2.60;;
13319;SDS011;59599;47.608;12.190;2022-08-19T09:26:10;3.00;;;2.70;;
13319;SDS011;59599;47.608;12.190;2022-08-19T09:28:39;2.92;;;2.40;;
13319;SDS011;59599;47.608;12.190;2022-08-19T09:31:29;3.47;;;2.80;;
13319;SDS011;59599;47.608;12.190;2022-08-19T09:33:54;3.90;;;2.13;;
13319;SDS011;59599;47.608;12.190;2022-08-19T09:36:24;3.03;;;2.15;;
13319;SDS011;59599;47.608;12.190;2022-08-19T09:38:53;6.57;;;2.33;;
13319;SDS011;59599;47.608;12.190;2022-08-19T09:41:20;2.25;;;1.98;;
13319;SDS011;59599;47.608;12.190;2022-08-19T09:43:49;4.70;;;2.20;;
13319;SDS011;59599;47.608;12.190;2022-08-19T09:46:21;2.45;;;2.13;;
13319;SDS011;59599;47.608;12.190;2022-08-19T09:48:49;3.97;;;1.83;;
13319;SDS011;59599;47.608;12.190;2022-08-19T09:51:16;2.78;;;1.70;;
13319;SDS011;59599;47.608;12.190;2022-08-19T09:53:47;2.78;;;2.00;;
13319;SDS011;59599;47.608;12.190;2022-08-19T09:56:22;2.10;;;1.90;;
13319;SDS011;59599;47.608;12.190;2022-08-19T09:58:48;2.45;;;2.25;;
13319;SDS011;59599;47.608;12.190;2022-08-19T10:01:32;3.22;;;2.92;;
13319;SDS011;59599;47.608;12.190;2022-08-19T10:03:59;3.60;;;2.70;;
13319;SDS011;59599;47.608;12.190;2022-08-19T10:06:27;2.97;;;2.67;;
13319;SDS011;59599;47.608;12.190;2022-08-19T10:08:57;7.75;;;2.60;;
13319;SDS011;59599;47.608;12.190;2022-08-19T10:11:23;3.63;;;1.85;;
13319;SDS011;59599;47.608;12.190;2022-08-19T10:13:49;4.07;;;2.10;;
13319;SDS011;59599;47.608;12.190;2022-08-19T10:16:16;2.67;;;2.47;;
13319;SDS011;59599;47.608;12.190;2022-08-19T10:18:45;3.10;;;2.80;;
13319;SDS011;59599;47.608;12.190;2022-08-19T10:21:11;2.03;;;1.90;;
13319;SDS011;59599;47.608;12.190;2022-08-19T10:23:40;3.53;;;3.08;;
13319;SDS011;59599;47.608;12.190;2022-08-19T10:26:12;2.60;;;2.40;;
13319;SDS011;59599;47.608;12.190;2022-08-19T10:28:39;4.53;;;3.40;;
13319;SDS011;59599;47.608;12.190;2022-08-19T10:31:07;4.18;;;2.90;;
13319;SDS011;59599;47.608;12.190;2022-08-19T10:33:35;3.03;;;2.72;;
13319;SDS011;59599;47.608;12.190;2022-08-19T10:36:03;3.60;;;2.92;;
13319;SDS011;59599;47.608;12.190;2022-08-19T10:38:30;3.33;;;3.03;;
13319;SDS011;59599;47.608;12.190;2022-08-19T10:40:56;3.20;;;2.90;;
13319;SDS011;59599;47.608;12.190;2022-08-19T10:43:23;4.22;;;2.78;;
13319;SDS011;59599;47.608;12.190;2022-08-19T10:45:53;3.30;;;3.10;;
13319;SDS011;59599;47.608;12.190;2022-08-19T10:48:24;3.00;;;2.70;;
13319;SDS011;59599;47.608;12.190;2022-08-19T10:50:50;3.42;;;3.13;;
13319;SDS011;59599;47.608;12.190;2022-08-19T10:53:34;3.25;;;2.95;;
13319;SDS011;59599;47.608;12.190;2022-08-19T10:56:00;2.97;;;2.78;;
13319;SDS011;59599;47.608;12.190;2022-08-19T10:58:44;3.50;;;3.20;;
13319;SDS011;59599;47.608;12.190;2022-08-19T11:01:10;3.35;;;2.72;;
13319;SDS011;59599;47.608;12.190;2022-08-19T11:03:36;3.25;;;2.85;;
13319;SDS011;59599;47.608;12.190;2022-08-19T11:06:06;2.58;;;2.38;;
13319;SDS011;59599;47.608;12.190;2022-08-19T11:08:33;3.08;;;2.80;;
13319;SDS011;59599;47.608;12.190;2022-08-19T11:11:02;3.22;;;2.90;;
13319;SDS011;59599;47.608;12.190;2022-08-19T11:13:29;2.80;;;2.60;;
13319;SDS011;59599;47.608;12.190;2022-08-19T11:16:08;3.30;;;3.00;;
13319;SDS011;59599;47.608;12.190;2022-08-19T11:18:39;4.53;;;2.90;;
13319;SDS011;59599;47.608;12.190;2022-08-19T11:21:08;3.25;;;2.90;;
13319;SDS011;59599;47.608;12.190;2022-08-19T11:23:35;4.65;;;2.72;;
13319;SDS011;59599;47.608;12.190;2022-08-19T11:26:01;3.22;;;3.03;;
13319;SDS011;59599;47.608;12.190;2022-08-19T11:28:27;2.83;;;2.63;;
13319;SDS011;59599;47.608;12.190;2022-08-19T11:30:53;5.60;;;2.97;;
13319;SDS011;59599;47.608;12.190;2022-08-19T11:33:19;2.40;;;2.20;;
13319;SDS011;59599;47.608;12.190;2022-08-19T11:35:45;3.63;;;3.30;;
13319;SDS011;59599;47.608;12.190;2022-08-19T11:38:11;3.67;;;3.38;;
13319;SDS011;59599;47.608;12.190;2022-08-19T11:40:38;3.30;;;3.00;;
13319;SDS011;59599;47.608;12.190;2022-08-19T11:43:03;3.42;;;3.00;;
13319;SDS011;59599;47.608;12.190;2022-08-19T11:45:29;3.22;;;2.92;;
13319;SDS011;59599;47.608;12.190;2022-08-19T11:47:55;3.08;;;2.80;;
13319;SDS011;59599;47.608;12.190;2022-08-19T11:50:21;4.50;;;2.40;;
13319;SDS011;59599;47.608;12.190;2022-08-19T11:52:48;2.38;;;2.17;;
13319;SDS011;59599;47.608;12.190;2022-08-19T11:55:14;2.28;;;2.08;;
13319;SDS011;59599;47.608;12.190;2022-08-19T11:57:40;3.47;;;2.53;;
13319;SDS011;59599;47.608;12.190;2022-08-19T12:00:08;3.92;;;2.13;;
13319;SDS011;59599;47.608;12.190;2022-08-19T12:02:36;3.15;;;2.55;;
13319;SDS011;59599;47.608;12.190;2022-08-19T12:05:02;4.28;;;3.50;;
13319;SDS011;59599;47.608;12.190;2022-08-19T12:07:28;5.22;;;3.42;;
13319;SDS011;59599;47.608;12.190;2022-08-19T12:09:57;4.50;;;4.03;;
13319;SDS011;59599;47.608;12.190;2022-08-19T12:12:24;4.18;;;3.78;;
13319;SDS011;59599;47.608;12.190;2022-08-19T12:14:49;4.43;;;3.00;;
13319;SDS011;59599;47.608;12.190;2022-08-19T12:17:21;4.68;;;3.72;;
13319;SDS011;59599;47.608;12.190;2022-08-19T12:19:47;3.72;;;3.30;;
13319;SDS011;59599;47.608;12.190;2022-08-19T12:22:13;3.17;;;2.88;;
13319;SDS011;59599;47.608;12.190;2022-08-19T12:24:39;4.05;;;3.45;;
13319;SDS011;59599;47.608;12.190;2022-08-19T12:27:04;3.25;;;2.95;;
13319;SDS011;59599;47.608;12.190;2022-08-19T12:29:30;4.93;;;2.60;;
13319;SDS011;59599;47.608;12.190;2022-08-19T12:31:57;2.47;;;2.28;;
13319;SDS011;59599;47.608;12.190;2022-08-19T12:34:28;5.32;;;2.50;;
13319;SDS011;59599;47.608;12.190;2022-08-19T12:36:55;2.70;;;2.42;;
13319;SDS011;59599;47.608;12.190;2022-08-19T12:39:22;3.88;;;3.58;;
13319;SDS011;59599;47.608;12.190;2022-08-19T12:41:47;3.97;;;3.63;;
13319;SDS011;59599;47.608;12.190;2022-08-19T12:44:13;4.28;;;3.88;;
13319;SDS011;59599;47.608;12.190;2022-08-19T12:46:39;3.90;;;3.30;;
13319;SDS011;59599;47.608;12.190;2022-08-19T12:49:05;3.83;;;3.17;;
13319;SDS011;59599;47.608;12.190;2022-08-19T12:51:31;4.03;;;3.28;;
13319;SDS011;59599;47.608;12.190;2022-08-19T12:53:57;5.13;;;4.28;;
13319;SDS011;59599;47.608;12.190;2022-08-19T12:56:23;5.38;;;3.55;;
13319;SDS011;59599;47.608;12.190;2022-08-19T12:58:48;6.07;;;3.38;;
13319;SDS011;59599;47.608;12.190;2022-08-19T13:01:15;4.03;;;3.72;;
13319;SDS011;59599;47.608;12.190;2022-08-19T13:03:42;4.20;;;3.63;;
13319;SDS011;59599;47.608;12.190;2022-08-19T13:06:10;4.25;;;3.30;;
13319;SDS011;59599;47.608;12.190;2022-08-19T13:08:36;3.08;;;2.78;;
13319;SDS011;59599;47.608;12.190;2022-08-19T13:11:07;6.05;;;3.22;;
13319;SDS011;59599;47.608;12.190;2022-08-19T13:13:35;3.72;;;3.42;;
13319;SDS011;59599;47.608;12.190;2022-08-19T13:16:01;4.18;;;3.40;;
13319;SDS011;59599;47.608;12.190;2022-08-19T13:18:28;3.67;;;3.17;;
13319;SDS011;59599;47.608;12.190;2022-08-19T13:20:53;3.70;;;3.40;;
13319;SDS011;59599;47.608;12.190;2022-08-19T13:23:19;3.30;;;3.10;;
13319;SDS011;59599;47.608;12.190;2022-08-19T13:25:44;3.13;;;2.67;;
13319;SDS011;59599;47.608;12.190;2022-08-19T13:28:20;3.17;;;2.88;;
13319;SDS011;59599;47.608;12.190;2022-08-19T13:30:46;3.15;;;2.95;;
13319;SDS011;59599;47.608;12.190;2022-08-19T13:33:35;3.45;;;3.15;;
13319;SDS011;59599;47.608;12.190;2022-08-19T13:36:01;3.25;;;2.88;;
13319;SDS011;59599;47.608;12.190;2022-08-19T13:38:27;3.22;;;2.72;;
13319;SDS011;59599;47.608;12.190;2022-08-19T13:40:53;3.30;;;2.95;;
13319;SDS011;59599;47.608;12.190;2022-08-19T13:43:22;3.42;;;2.88;;
13319;SDS011;59599;47.608;12.190;2022-08-19T13:45:51;3.30;;;2.92;;
13319;SDS011;59599;47.608;12.190;2022-08-19T13:48:20;4.75;;;2.30;;
13319;SDS011;59599;47.608;12.190;2022-08-19T13:50:46;2.85;;;2.50;;
13319;SDS011;59599;47.608;12.190;2022-08-19T13:53:13;3.88;;;2.60;;
13319;SDS011;59599;47.608;12.190;2022-08-19T13:55:40;2.63;;;2.40;;
13319;SDS011;59599;47.608;12.190;2022-08-19T13:58:07;2.55;;;2.30;;
13319;SDS011;59599;47.608;12.190;2022-08-19T14:00:34;2.47;;;2.17;;
13319;SDS011;59599;47.608;12.190;2022-08-19T14:03:02;2.40;;;2.20;;
13319;SDS011;59599;47.608;12.190;2022-08-19T14:05:28;4.43;;;2.05;;
13319;SDS011;59599;47.608;12.190;2022-08-19T14:07:55;2.03;;;1.92;;
13319;SDS011;59599;47.608;12.190;2022-08-19T14:10:21;2.53;;;2.28;;
13319;SDS011;59599;47.608;12.190;2022-08-19T14:12:48;2.35;;;2.15;;
13319;SDS011;59599;47.608;12.190;2022-08-19T14:15:14;2.70;;;2.50;;
13319;SDS011;59599;47.608;12.190;2022-08-19T14:17:41;2.83;;;2.58;;
13319;SDS011;59599;47.608;12.190;2022-08-19T14:20:09;2.22;;;2.03;;
13319;SDS011;59599;47.608;12.190;2022-08-19T14:22:36;4.60;;;2.42;;
13319;SDS011;59599;47.608;12.190;2022-08-19T14:25:04;2.42;;;2.20;;
13319;SDS011;59599;47.608;12.190;2022-08-19T14:27:37;2.30;;;2.10;;
13319;SDS011;59599;47.608;12.190;2022-08-19T14:30:05;3.17;;;2.50;;
13319;SDS011;59599;47.608;12.190;2022-08-19T14:32:33;2.60;;;1.88;;
13319;SDS011;59599;47.608;12.190;2022-08-19T14:35:00;4.45;;;2.55;;
13319;SDS011;59599;47.608;12.190;2022-08-19T14:37:26;3.10;;;2.40;;
13319;SDS011;59599;47.608;12.190;2022-08-19T14:39:51;5.32;;;2.17;;
13319;SDS011;59599;47.608;12.190;2022-08-19T14:42:17;2.30;;;2.10;;
13319;SDS011;59599;47.608;12.190;2022-08-19T14:44:43;3.33;;;2.35;;
13319;SDS011;59599;47.608;12.190;2022-08-19T14:47:09;4.72;;;3.53;;
13319;SDS011;59599;47.608;12.190;2022-08-19T14:49:35;4.07;;;3.67;;
13319;SDS011;59599;47.608;12.190;2022-08-19T14:52:01;2.92;;;0.90;;
13319;SDS011;59599;47.608;12.190;2022-08-19T14:54:28;3.58;;;1.10;;
13319;SDS011;59599;47.608;12.190;2022-08-19T14:56:53;1.40;;;0.95;;
13319;SDS011;59599;47.608;12.190;2022-08-19T14:59:19;2.15;;;1.13;;
13319;SDS011;59599;47.608;12.190;2022-08-19T15:01:45;1.88;;;0.90;;
13319;SDS011;59599;47.608;12.190;2022-08-19T15:04:11;1.20;;;1.10;;
13319;SDS011;59599;47.608;12.190;2022-08-19T15:06:36;2.03;;;1.10;;
13319;SDS011;59599;47.608;12.190;2022-08-19T15:09:02;2.60;;;1.30;;
13319;SDS011;59599;47.608;12.190;2022-08-19T15:11:29;3.80;;;1.02;;
13319;SDS011;59599;47.608;12.190;2022-08-19T15:13:57;4.25;;;1.40;;
13319;SDS011;59599;47.608;12.190;2022-08-19T15:16:23;3.53;;;1.40;;
13319;SDS011;59599;47.608;12.190;2022-08-19T15:18:54;6.40;;;1.92;;
13319;SDS011;59599;47.608;12.190;2022-08-19T15:21:21;10.45;;;2.13;;
13319;SDS011;59599;47.608;12.190;2022-08-19T15:23:48;7.05;;;1.75;;
13319;SDS011;59599;47.608;12.190;2022-08-19T15:26:15;5.03;;;2.20;;
13319;SDS011;59599;47.608;12.190;2022-08-19T15:28:42;4.28;;;1.40;;
13319;SDS011;59599;47.608;12.190;2022-08-19T15:31:08;3.28;;;1.85;;
13319;SDS011;59599;47.608;12.190;2022-08-19T15:33:35;3.15;;;1.55;;
13319;SDS011;59599;47.608;12.190;2022-08-19T15:36:07;2.88;;;1.50;;
13319;SDS011;59599;47.608;12.190;2022-08-19T15:38:34;3.85;;;1.95;;
13319;SDS011;59599;47.608;12.190;2022-08-19T15:41:01;5.65;;;1.90;;
13319;SDS011;59599;47.608;12.190;2022-08-19T15:43:46;3.40;;;1.83;;
13319;SDS011;59599;47.608;12.190;2022-08-19T15:46:16;2.85;;;1.52;;
13319;SDS011;59599;47.608;12.190;2022-08-19T15:48:43;2.47;;;1.30;;
13319;SDS011;59599;47.608;12.190;2022-08-19T15:51:09;3.78;;;1.60;;
13319;SDS011;59599;47.608;12.190;2022-08-19T15:53:35;9.88;;;4.13;;
13319;SDS011;59599;47.608;12.190;2022-08-19T15:56:01;2.40;;;1.70;;
13319;SDS011;59599;47.608;12.190;2022-08-19T15:58:27;6.57;;;1.83;;
13319;SDS011;59599;47.608;12.190;2022-08-19T16:01:11;2.85;;;1.60;;
13319;SDS011;59599;47.608;12.190;2022-08-19T16:04:12;3.80;;;1.55;;
13319;SDS011;59599;47.608;12.190;2022-08-19T16:06:57;6.85;;;2.35;;
13319;SDS011;59599;47.608;12.190;2022-08-19T16:09:25;5.65;;;2.00;;
13319;SDS011;59599;47.608;12.190;2022-08-19T16:11:56;6.43;;;2.30;;
13319;SDS011;59599;47.608;12.190;2022-08-19T16:14:25;4.95;;;2.15;;
13319;SDS011;59599;47.608;12.190;2022-08-19T16:16:51;3.10;;;2.00;;
13319;SDS011;59599;47.608;12.190;2022-08-19T16:19:20;3.58;;;2.03;;
13319;SDS011;59599;47.608;12.190;2022-08-19T16:21:47;3.00;;;1.83;;
13319;SDS011;59599;47.608;12.190;2022-08-19T16:24:15;4.05;;;1.60;;
13319;SDS011;59599;47.608;12.190;2022-08-19T16:26:42;2.38;;;1.20;;
13319;SDS011;59599;47.608;12.190;2022-08-19T16:29:09;4.70;;;1.75;;
13319;SDS011;59599;47.608;12.190;2022-08-19T16:31:35;3.03;;;1.50;;
13319;SDS011;59599;47.608;12.190;2022-08-19T16:34:02;3.05;;;1.45;;
13319;SDS011;59599;47.608;12.190;2022-08-19T16:36:29;2.63;;;1.35;;
13319;SDS011;59599;47.608;12.190;2022-08-19T16:38:55;4.43;;;1.50;;
13319;SDS011;59599;47.608;12.190;2022-08-19T16:41:21;3.92;;;1.67;;
13319;SDS011;59599;47.608;12.190;2022-08-19T16:43:47;3.47;;;1.63;;
13319;SDS011;59599;47.608;12.190;2022-08-19T16:46:17;3.97;;;1.90;;
13319;SDS011;59599;47.608;12.190;2022-08-19T16:48:46;2.70;;;1.73;;
13319;SDS011;59599;47.608;12.190;2022-08-19T16:51:12;3.97;;;1.88;;
13319;SDS011;59599;47.608;12.190;2022-08-19T16:53:39;5.70;;;2.50;;
13319;SDS011;59599;47.608;12.190;2022-08-19T16:56:07;5.50;;;1.92;;
13319;SDS011;59599;47.608;12.190;2022-08-19T16:58:33;4.32;;;1.73;;
13319;SDS011;59599;47.608;12.190;2022-08-19T17:01:03;3.70;;;2.00;;
13319;SDS011;59599;47.608;12.190;2022-08-19T17:03:31;3.38;;;1.90;;
13319;SDS011;59599;47.608;12.190;2022-08-19T17:05:59;6.05;;;1.83;;
13319;SDS011;59599;47.608;12.190;2022-08-19T17:08:28;2.38;;;1.48;;
13319;SDS011;59599;47.608;12.190;2022-08-19T17:10:55;4.75;;;1.92;;
13319;SDS011;59599;47.608;12.190;2022-08-19T17:13:23;4.55;;;1.90;;
13319;SDS011;59599;47.608;12.190;2022-08-19T17:15:50;2.97;;;1.90;;
13319;SDS011;59599;47.608;12.190;2022-08-19T17:18:16;3.47;;;2.00;;
13319;SDS011;59599;47.608;12.190;2022-08-19T17:20:42;4.00;;;2.03;;
13319;SDS011;59599;47.608;12.190;2022-08-19T17:23:10;5.25;;;2.17;;
13319;SDS011;59599;47.608;12.190;2022-08-19T17:25:35;6.55;;;2.40;;
13319;SDS011;59599;47.608;12.190;2022-08-19T17:28:12;5.57;;;2.47;;
13319;SDS011;59599;47.608;12.190;2022-08-19T17:30:40;4.30;;;2.13;;
13319;SDS011;59599;47.608;12.190;2022-08-19T17:33:06;3.83;;;1.90;;
13319;SDS011;59599;47.608;12.190;2022-08-19T17:35:32;4.30;;;2.25;;
13319;SDS011;59599;47.608;12.190;2022-08-19T17:38:02;4.50;;;2.20;;
13319;SDS011;59599;47.608;12.190;2022-08-19T17:40:29;5.88;;;1.67;;
13319;SDS011;59599;47.608;12.190;2022-08-19T17:42:55;2.55;;;1.50;;
13319;SDS011;59599;47.608;12.190;2022-08-19T17:45:20;3.53;;;1.20;;
13319;SDS011;59599;47.608;12.190;2022-08-19T17:47:46;2.80;;;1.38;;
13319;SDS011;59599;47.608;12.190;2022-08-19T17:50:12;2.92;;;1.60;;
13319;SDS011;59599;47.608;12.190;2022-08-19T17:52:38;4.75;;;1.85;;
13319;SDS011;59599;47.608;12.190;2022-08-19T17:55:05;2.33;;;1.47;;
13319;SDS011;59599;47.608;12.190;2022-08-19T17:57:31;2.95;;;2.03;;
13319;SDS011;59599;47.608;12.190;2022-08-19T17:59:58;3.83;;;1.50;;
13319;SDS011;59599;47.608;12.190;2022-08-19T18:02:24;2.75;;;1.52;;
13319;SDS011;59599;47.608;12.190;2022-08-19T18:04:50;3.47;;;1.42;;
13319;SDS011;59599;47.608;12.190;2022-08-19T18:07:15;2.30;;;1.30;;
13319;SDS011;59599;47.608;12.190;2022-08-19T18:09:45;4.53;;;1.40;;
13319;SDS011;59599;47.608;12.190;2022-08-19T18:12:19;5.30;;;1.80;;
13319;SDS011;59599;47.608;12.190;2022-08-19T18:14:46;2.83;;;1.77;;
13319;SDS011;59599;47.608;12.190;2022-08-19T18:17:13;3.33;;;2.00;;
13319;SDS011;59599;47.608;12.190;2022-08-19T18:19:42;2.97;;;1.92;;
13319;SDS011;59599;47.608;12.190;2022-08-19T18:22:22;3.67;;;1.50;;
13319;SDS011;59599;47.608;12.190;2022-08-19T18:24:48;2.00;;;1.77;;
13319;SDS011;59599;47.608;12.190;2022-08-19T18:27:14;2.38;;;1.50;;
13319;SDS011;59599;47.608;12.190;2022-08-19T18:29:40;3.17;;;1.50;;
13319;SDS011;59599;47.608;12.190;2022-08-19T18:32:07;3.42;;;1.52;;
13319;SDS011;59599;47.608;12.190;2022-08-19T18:34:39;2.45;;;1.30;;
13319;SDS011;59599;47.608;12.190;2022-08-19T18:37:06;2.42;;;1.33;;
13319;SDS011;59599;47.608;12.190;2022-08-19T18:39:32;2.08;;;1.55;;
13319;SDS011;59599;47.608;12.190;2022-08-19T18:42:17;3.03;;;1.75;;